sensor_id;sensor_type;location;lat;lon;timestamp;P1;durP1;ratioP1;P2;durP2;ratioP2
27857;SDS011;16852;51.446;6.528;2024-01-11T00:00:20;39.38;;;18.40;;
27857;SDS011;16852;51.446;6.528;2024-01-11T00:02:21;38.38;;;17.60;;
27857;SDS011;16852;51.446;6.528;2024-01-11T00:04:22;40.67;;;17.55;;
27857;SDS011;16852;51.446;6.528;2024-01-11T00:06:22;40.72;;;17.00;;
27857;SDS011;16852;51.446;6.528;2024-01-11T00:08:23;44.13;;;18.95;;
27857;SDS011;16852;51.446;6.528;2024-01-11T00:10:23;42.92;;;18.17;;
27857;SDS011;16852;51.446;6.528;2024-01-11T00:12:24;40.72;;;19.23;;
27857;SDS011;16852;51.446;6.528;2024-01-11T00:14:24;38.95;;;18.00;;
27857;SDS011;16852;51.446;6.528;2024-01-11T00:16:25;39.47;;;18.83;;
27857;SDS011;16852;51.446;6.528;2024-01-11T00:18:26;39.13;;;17.70;;
27857;SDS011;16852;51.446;6.528;2024-01-11T00:20:27;44.15;;;19.08;;
27857;SDS011;16852;51.446;6.528;2024-01-11T00:22:27;39.08;;;18.40;;
27857;SDS011;16852;51.446;6.528;2024-01-11T00:24:28;44.13;;;18.90;;
27857;SDS011;16852;51.446;6.528;2024-01-11T00:26:28;41.65;;;18.30;;
27857;SDS011;16852;51.446;6.528;2024-01-11T00:28:29;43.70;;;19.55;;
27857;SDS011;16852;51.446;6.528;2024-01-11T00:30:30;39.47;;;18.33;;
27857;SDS011;16852;51.446;6.528;2024-01-11T00:32:30;41.65;;;18.20;;
27857;SDS011;16852;51.446;6.528;2024-01-11T00:34:31;41.03;;;18.45;;
27857;SDS011;16852;51.446;6.528;2024-01-11T00:36:32;38.28;;;18.38;;
27857;SDS011;16852;51.446;6.528;2024-01-11T00:38:34;40.85;;;18.55;;
27857;SDS011;16852;51.446;6.528;2024-01-11T00:40:35;38.05;;;17.98;;
27857;SDS011;16852;51.446;6.528;2024-01-11T00:42:35;37.72;;;16.83;;
27857;SDS011;16852;51.446;6.528;2024-01-11T00:44:36;40.15;;;18.35;;
27857;SDS011;16852;51.446;6.528;2024-01-11T00:46:36;43.22;;;18.30;;
27857;SDS011;16852;51.446;6.528;2024-01-11T00:48:38;39.88;;;18.35;;
27857;SDS011;16852;51.446;6.528;2024-01-11T00:50:38;43.38;;;19.52;;
27857;SDS011;16852;51.446;6.528;2024-01-11T00:52:39;46.05;;;20.15;;
27857;SDS011;16852;51.446;6.528;2024-01-11T00:54:40;41.40;;;18.98;;
27857;SDS011;16852;51.446;6.528;2024-01-11T00:56:40;37.05;;;17.60;;
27857;SDS011;16852;51.446;6.528;2024-01-11T00:58:41;42.35;;;18.55;;
27857;SDS011;16852;51.446;6.528;2024-01-11T01:00:42;40.22;;;17.98;;
27857;SDS011;16852;51.446;6.528;2024-01-11T01:02:43;37.40;;;17.38;;
27857;SDS011;16852;51.446;6.528;2024-01-11T01:04:43;45.25;;;19.38;;
27857;SDS011;16852;51.446;6.528;2024-01-11T01:06:44;40.88;;;18.20;;
27857;SDS011;16852;51.446;6.528;2024-01-11T01:08:45;43.05;;;18.70;;
27857;SDS011;16852;51.446;6.528;2024-01-11T01:10:45;38.40;;;18.90;;
27857;SDS011;16852;51.446;6.528;2024-01-11T01:12:46;39.85;;;19.05;;
27857;SDS011;16852;51.446;6.528;2024-01-11T01:14:46;44.17;;;20.02;;
27857;SDS011;16852;51.446;6.528;2024-01-11T01:16:47;43.70;;;19.33;;
27857;SDS011;16852;51.446;6.528;2024-01-11T01:18:48;41.97;;;19.70;;
27857;SDS011;16852;51.446;6.528;2024-01-11T01:20:48;42.58;;;20.48;;
27857;SDS011;16852;51.446;6.528;2024-01-11T01:22:49;43.22;;;18.92;;
27857;SDS011;16852;51.446;6.528;2024-01-11T01:24:50;47.25;;;20.48;;
27857;SDS011;16852;51.446;6.528;2024-01-11T01:26:50;41.28;;;19.48;;
27857;SDS011;16852;51.446;6.528;2024-01-11T01:28:51;43.05;;;19.15;;
27857;SDS011;16852;51.446;6.528;2024-01-11T01:30:51;50.67;;;21.20;;
27857;SDS011;16852;51.446;6.528;2024-01-11T01:32:52;48.22;;;21.80;;
27857;SDS011;16852;51.446;6.528;2024-01-11T01:34:53;53.15;;;23.13;;
27857;SDS011;16852;51.446;6.528;2024-01-11T01:36:53;48.85;;;21.70;;
27857;SDS011;16852;51.446;6.528;2024-01-11T01:38:54;52.10;;;22.80;;
27857;SDS011;16852;51.446;6.528;2024-01-11T01:40:54;44.63;;;20.70;;
27857;SDS011;16852;51.446;6.528;2024-01-11T01:42:58;48.08;;;21.33;;
27857;SDS011;16852;51.446;6.528;2024-01-11T01:45:02;44.83;;;21.27;;
27857;SDS011;16852;51.446;6.528;2024-01-11T01:47:03;44.03;;;21.00;;
27857;SDS011;16852;51.446;6.528;2024-01-11T01:49:04;47.63;;;22.27;;
27857;SDS011;16852;51.446;6.528;2024-01-11T01:51:05;47.70;;;20.20;;
27857;SDS011;16852;51.446;6.528;2024-01-11T01:53:06;47.45;;;20.98;;
27857;SDS011;16852;51.446;6.528;2024-01-11T01:55:07;46.90;;;20.88;;
27857;SDS011;16852;51.446;6.528;2024-01-11T01:57:10;50.85;;;22.15;;
27857;SDS011;16852;51.446;6.528;2024-01-11T01:59:12;53.00;;;22.85;;
27857;SDS011;16852;51.446;6.528;2024-01-11T02:01:13;48.05;;;22.40;;
27857;SDS011;16852;51.446;6.528;2024-01-11T02:03:15;45.03;;;20.93;;
27857;SDS011;16852;51.446;6.528;2024-01-11T02:05:16;45.95;;;20.65;;
27857;SDS011;16852;51.446;6.528;2024-01-11T02:07:18;45.28;;;20.75;;
27857;SDS011;16852;51.446;6.528;2024-01-11T02:09:19;48.85;;;20.55;;
27857;SDS011;16852;51.446;6.528;2024-01-11T02:11:20;46.53;;;21.88;;
27857;SDS011;16852;51.446;6.528;2024-01-11T02:15:23;47.17;;;20.25;;
27857;SDS011;16852;51.446;6.528;2024-01-11T02:17:24;45.63;;;20.38;;
27857;SDS011;16852;51.446;6.528;2024-01-11T02:19:25;49.97;;;21.50;;
27857;SDS011;16852;51.446;6.528;2024-01-11T02:21:25;49.33;;;20.77;;
27857;SDS011;16852;51.446;6.528;2024-01-11T02:23:28;47.22;;;22.00;;
27857;SDS011;16852;51.446;6.528;2024-01-11T02:25:30;48.03;;;19.33;;
27857;SDS011;16852;51.446;6.528;2024-01-11T02:27:30;48.63;;;22.42;;
27857;SDS011;16852;51.446;6.528;2024-01-11T02:29:31;46.22;;;20.73;;
27857;SDS011;16852;51.446;6.528;2024-01-11T02:31:32;48.85;;;22.02;;
27857;SDS011;16852;51.446;6.528;2024-01-11T02:33:32;46.70;;;20.25;;
27857;SDS011;16852;51.446;6.528;2024-01-11T02:35:33;48.75;;;21.38;;
27857;SDS011;16852;51.446;6.528;2024-01-11T02:37:36;52.00;;;22.45;;
27857;SDS011;16852;51.446;6.528;2024-01-11T02:39:38;43.92;;;20.48;;
27857;SDS011;16852;51.446;6.528;2024-01-11T02:41:39;49.00;;;21.45;;
27857;SDS011;16852;51.446;6.528;2024-01-11T02:43:40;55.35;;;23.00;;
27857;SDS011;16852;51.446;6.528;2024-01-11T02:45:46;43.33;;;20.08;;
27857;SDS011;16852;51.446;6.528;2024-01-11T02:47:46;44.45;;;21.25;;
27857;SDS011;16852;51.446;6.528;2024-01-11T02:49:47;45.35;;;19.98;;
27857;SDS011;16852;51.446;6.528;2024-01-11T02:51:47;45.65;;;21.15;;
27857;SDS011;16852;51.446;6.528;2024-01-11T02:53:48;48.92;;;21.48;;
27857;SDS011;16852;51.446;6.528;2024-01-11T02:55:52;52.65;;;22.38;;
27857;SDS011;16852;51.446;6.528;2024-01-11T02:57:52;50.05;;;22.27;;
27857;SDS011;16852;51.446;6.528;2024-01-11T02:59:53;50.65;;;21.77;;
27857;SDS011;16852;51.446;6.528;2024-01-11T03:01:53;54.47;;;23.83;;
27857;SDS011;16852;51.446;6.528;2024-01-11T03:03:54;47.35;;;21.55;;
27857;SDS011;16852;51.446;6.528;2024-01-11T03:05:56;46.97;;;21.58;;
27857;SDS011;16852;51.446;6.528;2024-01-11T03:07:56;49.22;;;21.90;;
27857;SDS011;16852;51.446;6.528;2024-01-11T03:09:57;48.75;;;20.73;;
27857;SDS011;16852;51.446;6.528;2024-01-11T03:11:58;48.83;;;21.85;;
27857;SDS011;16852;51.446;6.528;2024-01-11T03:13:58;49.17;;;22.13;;
27857;SDS011;16852;51.446;6.528;2024-01-11T03:15:59;42.40;;;20.05;;
27857;SDS011;16852;51.446;6.528;2024-01-11T03:17:59;46.67;;;21.38;;
27857;SDS011;16852;51.446;6.528;2024-01-11T03:20:00;47.88;;;20.65;;
27857;SDS011;16852;51.446;6.528;2024-01-11T03:22:00;44.53;;;20.83;;
27857;SDS011;16852;51.446;6.528;2024-01-11T03:24:06;49.90;;;21.98;;
27857;SDS011;16852;51.446;6.528;2024-01-11T03:26:13;43.00;;;19.00;;
27857;SDS011;16852;51.446;6.528;2024-01-11T03:28:15;41.40;;;19.85;;
27857;SDS011;16852;51.446;6.528;2024-01-11T03:30:16;46.10;;;20.27;;
27857;SDS011;16852;51.446;6.528;2024-01-11T03:32:17;50.35;;;21.00;;
27857;SDS011;16852;51.446;6.528;2024-01-11T03:34:17;51.25;;;21.20;;
27857;SDS011;16852;51.446;6.528;2024-01-11T03:36:18;47.40;;;21.58;;
27857;SDS011;16852;51.446;6.528;2024-01-11T03:38:22;45.25;;;20.30;;
27857;SDS011;16852;51.446;6.528;2024-01-11T03:40:23;44.80;;;21.35;;
27857;SDS011;16852;51.446;6.528;2024-01-11T03:42:23;49.45;;;21.92;;
27857;SDS011;16852;51.446;6.528;2024-01-11T03:44:24;49.83;;;21.85;;
27857;SDS011;16852;51.446;6.528;2024-01-11T03:46:25;48.35;;;21.90;;
27857;SDS011;16852;51.446;6.528;2024-01-11T03:48:25;50.95;;;22.25;;
27857;SDS011;16852;51.446;6.528;2024-01-11T03:50:26;48.00;;;21.00;;
27857;SDS011;16852;51.446;6.528;2024-01-11T03:52:26;49.22;;;21.85;;
27857;SDS011;16852;51.446;6.528;2024-01-11T03:54:27;46.30;;;20.80;;
27857;SDS011;16852;51.446;6.528;2024-01-11T03:56:28;47.45;;;21.55;;
27857;SDS011;16852;51.446;6.528;2024-01-11T03:58:28;51.63;;;21.92;;
27857;SDS011;16852;51.446;6.528;2024-01-11T04:00:29;48.78;;;21.60;;
27857;SDS011;16852;51.446;6.528;2024-01-11T04:02:29;52.40;;;22.33;;
27857;SDS011;16852;51.446;6.528;2024-01-11T04:04:30;50.53;;;22.08;;
27857;SDS011;16852;51.446;6.528;2024-01-11T04:06:30;49.83;;;23.02;;
27857;SDS011;16852;51.446;6.528;2024-01-11T04:08:31;51.15;;;22.52;;
27857;SDS011;16852;51.446;6.528;2024-01-11T04:10:32;54.38;;;23.58;;
27857;SDS011;16852;51.446;6.528;2024-01-11T04:12:32;49.00;;;22.70;;
27857;SDS011;16852;51.446;6.528;2024-01-11T04:14:33;48.92;;;22.13;;
27857;SDS011;16852;51.446;6.528;2024-01-11T04:16:33;50.15;;;22.52;;
27857;SDS011;16852;51.446;6.528;2024-01-11T04:18:39;55.00;;;22.08;;
27857;SDS011;16852;51.446;6.528;2024-01-11T04:20:39;49.80;;;22.38;;
27857;SDS011;16852;51.446;6.528;2024-01-11T04:22:40;54.55;;;23.67;;
27857;SDS011;16852;51.446;6.528;2024-01-11T04:24:41;50.78;;;22.20;;
27857;SDS011;16852;51.446;6.528;2024-01-11T04:26:43;51.08;;;20.98;;
27857;SDS011;16852;51.446;6.528;2024-01-11T04:28:44;48.63;;;21.92;;
27857;SDS011;16852;51.446;6.528;2024-01-11T04:30:46;50.90;;;21.23;;
27857;SDS011;16852;51.446;6.528;2024-01-11T04:32:46;49.72;;;22.42;;
27857;SDS011;16852;51.446;6.528;2024-01-11T04:34:47;44.42;;;19.67;;
27857;SDS011;16852;51.446;6.528;2024-01-11T04:36:48;51.35;;;20.92;;
27857;SDS011;16852;51.446;6.528;2024-01-11T04:38:48;48.85;;;21.30;;
27857;SDS011;16852;51.446;6.528;2024-01-11T04:40:49;47.17;;;21.50;;
27857;SDS011;16852;51.446;6.528;2024-01-11T04:42:49;50.10;;;21.85;;
27857;SDS011;16852;51.446;6.528;2024-01-11T04:44:50;50.05;;;21.65;;
27857;SDS011;16852;51.446;6.528;2024-01-11T04:46:50;43.13;;;20.95;;
27857;SDS011;16852;51.446;6.528;2024-01-11T04:48:51;48.95;;;21.83;;
27857;SDS011;16852;51.446;6.528;2024-01-11T04:52:54;47.35;;;20.83;;
27857;SDS011;16852;51.446;6.528;2024-01-11T04:54:54;47.65;;;21.92;;
27857;SDS011;16852;51.446;6.528;2024-01-11T04:56:55;50.83;;;21.60;;
27857;SDS011;16852;51.446;6.528;2024-01-11T04:58:56;50.70;;;21.45;;
27857;SDS011;16852;51.446;6.528;2024-01-11T05:00:56;46.75;;;21.63;;
27857;SDS011;16852;51.446;6.528;2024-01-11T05:02:57;50.22;;;21.90;;
27857;SDS011;16852;51.446;6.528;2024-01-11T05:04:57;50.35;;;21.48;;
27857;SDS011;16852;51.446;6.528;2024-01-11T05:06:58;47.92;;;22.15;;
27857;SDS011;16852;51.446;6.528;2024-01-11T05:08:58;49.17;;;21.73;;
27857;SDS011;16852;51.446;6.528;2024-01-11T05:10:59;46.75;;;21.75;;
27857;SDS011;16852;51.446;6.528;2024-01-11T05:13:00;50.40;;;21.45;;
27857;SDS011;16852;51.446;6.528;2024-01-11T05:15:00;49.13;;;22.08;;
27857;SDS011;16852;51.446;6.528;2024-01-11T05:17:01;50.35;;;21.60;;
27857;SDS011;16852;51.446;6.528;2024-01-11T05:19:02;46.67;;;20.77;;
27857;SDS011;16852;51.446;6.528;2024-01-11T05:21:02;45.83;;;20.92;;
27857;SDS011;16852;51.446;6.528;2024-01-11T05:23:03;57.58;;;23.90;;
27857;SDS011;16852;51.446;6.528;2024-01-11T05:25:04;53.72;;;22.80;;
27857;SDS011;16852;51.446;6.528;2024-01-11T05:27:05;52.05;;;21.92;;
27857;SDS011;16852;51.446;6.528;2024-01-11T05:29:05;56.47;;;24.42;;
27857;SDS011;16852;51.446;6.528;2024-01-11T05:31:09;50.50;;;22.58;;
27857;SDS011;16852;51.446;6.528;2024-01-11T05:33:11;49.97;;;21.48;;
27857;SDS011;16852;51.446;6.528;2024-01-11T05:35:11;52.80;;;22.88;;
27857;SDS011;16852;51.446;6.528;2024-01-11T05:37:12;47.92;;;21.88;;
27857;SDS011;16852;51.446;6.528;2024-01-11T05:39:13;54.55;;;23.02;;
27857;SDS011;16852;51.446;6.528;2024-01-11T05:41:13;47.58;;;21.58;;
27857;SDS011;16852;51.446;6.528;2024-01-11T05:43:14;51.22;;;22.42;;
27857;SDS011;16852;51.446;6.528;2024-01-11T05:45:15;50.63;;;21.92;;
27857;SDS011;16852;51.446;6.528;2024-01-11T05:47:18;54.42;;;22.60;;
27857;SDS011;16852;51.446;6.528;2024-01-11T05:49:18;55.08;;;24.27;;
27857;SDS011;16852;51.446;6.528;2024-01-11T05:51:19;51.03;;;21.55;;
27857;SDS011;16852;51.446;6.528;2024-01-11T05:53:20;51.30;;;21.95;;
27857;SDS011;16852;51.446;6.528;2024-01-11T05:55:20;51.25;;;23.08;;
27857;SDS011;16852;51.446;6.528;2024-01-11T05:57:21;56.55;;;22.15;;
27857;SDS011;16852;51.446;6.528;2024-01-11T05:59:22;53.08;;;22.17;;
27857;SDS011;16852;51.446;6.528;2024-01-11T06:01:22;54.50;;;22.70;;
27857;SDS011;16852;51.446;6.528;2024-01-11T06:03:23;50.67;;;21.73;;
27857;SDS011;16852;51.446;6.528;2024-01-11T06:05:25;46.85;;;21.88;;
27857;SDS011;16852;51.446;6.528;2024-01-11T06:07:26;51.03;;;21.75;;
27857;SDS011;16852;51.446;6.528;2024-01-11T06:09:26;52.95;;;22.45;;
27857;SDS011;16852;51.446;6.528;2024-01-11T06:11:27;49.30;;;21.05;;
27857;SDS011;16852;51.446;6.528;2024-01-11T06:13:28;47.97;;;20.13;;
27857;SDS011;16852;51.446;6.528;2024-01-11T06:15:28;43.95;;;19.80;;
27857;SDS011;16852;51.446;6.528;2024-01-11T06:17:29;49.17;;;20.33;;
27857;SDS011;16852;51.446;6.528;2024-01-11T06:19:30;46.80;;;22.05;;
27857;SDS011;16852;51.446;6.528;2024-01-11T06:21:30;49.55;;;20.23;;
27857;SDS011;16852;51.446;6.528;2024-01-11T06:23:31;46.22;;;21.45;;
27857;SDS011;16852;51.446;6.528;2024-01-11T06:25:32;46.47;;;20.40;;
27857;SDS011;16852;51.446;6.528;2024-01-11T06:27:33;41.72;;;19.50;;
27857;SDS011;16852;51.446;6.528;2024-01-11T06:29:33;43.35;;;18.88;;
27857;SDS011;16852;51.446;6.528;2024-01-11T06:31:34;39.25;;;18.33;;
27857;SDS011;16852;51.446;6.528;2024-01-11T06:33:34;41.78;;;20.13;;
27857;SDS011;16852;51.446;6.528;2024-01-11T06:35:37;44.75;;;20.23;;
27857;SDS011;16852;51.446;6.528;2024-01-11T06:37:37;44.92;;;19.77;;
27857;SDS011;16852;51.446;6.528;2024-01-11T06:39:38;45.55;;;19.73;;
27857;SDS011;16852;51.446;6.528;2024-01-11T06:41:38;45.20;;;20.48;;
27857;SDS011;16852;51.446;6.528;2024-01-11T06:43:39;49.17;;;21.75;;
27857;SDS011;16852;51.446;6.528;2024-01-11T06:45:40;44.30;;;20.75;;
27857;SDS011;16852;51.446;6.528;2024-01-11T06:47:44;40.30;;;19.08;;
27857;SDS011;16852;51.446;6.528;2024-01-11T06:49:46;46.45;;;20.80;;
27857;SDS011;16852;51.446;6.528;2024-01-11T06:51:46;43.17;;;19.08;;
27857;SDS011;16852;51.446;6.528;2024-01-11T06:53:47;42.95;;;18.42;;
27857;SDS011;16852;51.446;6.528;2024-01-11T06:55:47;42.63;;;19.10;;
27857;SDS011;16852;51.446;6.528;2024-01-11T06:57:48;45.13;;;19.85;;
27857;SDS011;16852;51.446;6.528;2024-01-11T06:59:49;48.15;;;21.15;;
27857;SDS011;16852;51.446;6.528;2024-01-11T07:01:50;49.25;;;22.02;;
27857;SDS011;16852;51.446;6.528;2024-01-11T07:03:51;47.22;;;20.63;;
27857;SDS011;16852;51.446;6.528;2024-01-11T07:05:52;49.40;;;22.08;;
27857;SDS011;16852;51.446;6.528;2024-01-11T07:07:52;47.13;;;21.05;;
27857;SDS011;16852;51.446;6.528;2024-01-11T07:09:53;45.35;;;21.15;;
27857;SDS011;16852;51.446;6.528;2024-01-11T07:11:55;45.10;;;21.08;;
27857;SDS011;16852;51.446;6.528;2024-01-11T07:13:56;47.60;;;20.38;;
27857;SDS011;16852;51.446;6.528;2024-01-11T07:15:57;51.60;;;20.05;;
27857;SDS011;16852;51.446;6.528;2024-01-11T07:17:58;40.97;;;19.17;;
27857;SDS011;16852;51.446;6.528;2024-01-11T07:19:59;43.75;;;19.52;;
27857;SDS011;16852;51.446;6.528;2024-01-11T07:22:00;42.05;;;18.08;;
27857;SDS011;16852;51.446;6.528;2024-01-11T07:24:00;44.08;;;19.73;;
27857;SDS011;16852;51.446;6.528;2024-01-11T07:26:01;51.08;;;20.95;;
27857;SDS011;16852;51.446;6.528;2024-01-11T07:28:02;44.60;;;20.23;;
27857;SDS011;16852;51.446;6.528;2024-01-11T07:30:03;48.42;;;20.67;;
27857;SDS011;16852;51.446;6.528;2024-01-11T07:32:06;48.92;;;20.33;;
27857;SDS011;16852;51.446;6.528;2024-01-11T07:34:07;50.55;;;21.27;;
27857;SDS011;16852;51.446;6.528;2024-01-11T07:36:07;47.08;;;22.23;;
27857;SDS011;16852;51.446;6.528;2024-01-11T07:38:09;47.63;;;21.23;;
27857;SDS011;16852;51.446;6.528;2024-01-11T07:40:09;46.70;;;18.23;;
27857;SDS011;16852;51.446;6.528;2024-01-11T07:42:10;46.13;;;20.23;;
27857;SDS011;16852;51.446;6.528;2024-01-11T07:44:11;43.00;;;19.77;;
27857;SDS011;16852;51.446;6.528;2024-01-11T07:46:12;44.45;;;18.67;;
27857;SDS011;16852;51.446;6.528;2024-01-11T07:48:12;51.05;;;20.27;;
27857;SDS011;16852;51.446;6.528;2024-01-11T07:50:13;45.15;;;18.58;;
27857;SDS011;16852;51.446;6.528;2024-01-11T07:52:14;39.45;;;17.73;;
27857;SDS011;16852;51.446;6.528;2024-01-11T07:54:14;41.70;;;17.77;;
27857;SDS011;16852;51.446;6.528;2024-01-11T07:56:15;45.58;;;18.90;;
27857;SDS011;16852;51.446;6.528;2024-01-11T07:58:15;44.22;;;19.65;;
27857;SDS011;16852;51.446;6.528;2024-01-11T08:00:16;43.20;;;18.90;;
27857;SDS011;16852;51.446;6.528;2024-01-11T08:02:17;42.83;;;18.63;;
27857;SDS011;16852;51.446;6.528;2024-01-11T08:04:17;46.33;;;20.42;;
27857;SDS011;16852;51.446;6.528;2024-01-11T08:06:18;42.17;;;19.48;;
27857;SDS011;16852;51.446;6.528;2024-01-11T08:08:18;47.63;;;20.27;;
27857;SDS011;16852;51.446;6.528;2024-01-11T08:10:19;46.38;;;20.50;;
27857;SDS011;16852;51.446;6.528;2024-01-11T08:12:20;42.53;;;19.15;;
27857;SDS011;16852;51.446;6.528;2024-01-11T08:14:20;39.13;;;17.67;;
27857;SDS011;16852;51.446;6.528;2024-01-11T08:16:21;39.22;;;18.50;;
27857;SDS011;16852;51.446;6.528;2024-01-11T08:18:22;43.00;;;18.73;;
27857;SDS011;16852;51.446;6.528;2024-01-11T08:20:22;44.15;;;19.00;;
27857;SDS011;16852;51.446;6.528;2024-01-11T08:22:23;44.13;;;19.35;;
27857;SDS011;16852;51.446;6.528;2024-01-11T08:24:24;36.85;;;17.90;;
27857;SDS011;16852;51.446;6.528;2024-01-11T08:26:25;39.83;;;18.77;;
27857;SDS011;16852;51.446;6.528;2024-01-11T08:28:25;46.25;;;20.52;;
27857;SDS011;16852;51.446;6.528;2024-01-11T08:30:26;44.40;;;19.45;;
27857;SDS011;16852;51.446;6.528;2024-01-11T08:32:26;50.88;;;21.33;;
27857;SDS011;16852;51.446;6.528;2024-01-11T08:34:27;45.72;;;20.52;;
27857;SDS011;16852;51.446;6.528;2024-01-11T08:36:30;48.10;;;21.35;;
27857;SDS011;16852;51.446;6.528;2024-01-11T08:38:34;47.47;;;21.50;;
27857;SDS011;16852;51.446;6.528;2024-01-11T08:40:35;44.72;;;20.70;;
27857;SDS011;16852;51.446;6.528;2024-01-11T08:42:36;44.88;;;21.05;;
27857;SDS011;16852;51.446;6.528;2024-01-11T08:44:41;45.13;;;21.13;;
27857;SDS011;16852;51.446;6.528;2024-01-11T08:46:42;46.70;;;21.23;;
27857;SDS011;16852;51.446;6.528;2024-01-11T08:48:44;39.55;;;20.10;;
27857;SDS011;16852;51.446;6.528;2024-01-11T08:50:44;43.70;;;20.52;;
27857;SDS011;16852;51.446;6.528;2024-01-11T08:52:45;42.28;;;20.35;;
27857;SDS011;16852;51.446;6.528;2024-01-11T08:54:46;47.22;;;20.83;;
27857;SDS011;16852;51.446;6.528;2024-01-11T08:56:47;46.70;;;21.27;;
27857;SDS011;16852;51.446;6.528;2024-01-11T08:58:48;43.25;;;19.23;;
27857;SDS011;16852;51.446;6.528;2024-01-11T09:00:48;47.00;;;20.48;;
27857;SDS011;16852;51.446;6.528;2024-01-11T09:02:49;46.10;;;20.25;;
27857;SDS011;16852;51.446;6.528;2024-01-11T09:04:50;44.65;;;20.33;;
27857;SDS011;16852;51.446;6.528;2024-01-11T09:06:50;42.28;;;20.30;;
27857;SDS011;16852;51.446;6.528;2024-01-11T09:08:51;43.53;;;19.95;;
27857;SDS011;16852;51.446;6.528;2024-01-11T09:10:52;48.33;;;21.80;;
27857;SDS011;16852;51.446;6.528;2024-01-11T09:12:53;41.75;;;20.13;;
27857;SDS011;16852;51.446;6.528;2024-01-11T09:14:54;44.15;;;20.05;;
27857;SDS011;16852;51.446;6.528;2024-01-11T09:16:55;43.33;;;20.30;;
27857;SDS011;16852;51.446;6.528;2024-01-11T09:18:56;42.50;;;20.08;;
27857;SDS011;16852;51.446;6.528;2024-01-11T09:20:56;45.03;;;20.42;;
27857;SDS011;16852;51.446;6.528;2024-01-11T09:22:57;46.30;;;19.85;;
27857;SDS011;16852;51.446;6.528;2024-01-11T09:24:57;46.53;;;20.38;;
27857;SDS011;16852;51.446;6.528;2024-01-11T09:26:58;39.20;;;18.98;;
27857;SDS011;16852;51.446;6.528;2024-01-11T09:28:59;48.05;;;23.42;;
27857;SDS011;16852;51.446;6.528;2024-01-11T09:30:59;43.45;;;20.05;;
27857;SDS011;16852;51.446;6.528;2024-01-11T09:33:01;42.70;;;20.58;;
27857;SDS011;16852;51.446;6.528;2024-01-11T09:35:03;43.72;;;20.63;;
27857;SDS011;16852;51.446;6.528;2024-01-11T09:37:04;39.63;;;20.15;;
27857;SDS011;16852;51.446;6.528;2024-01-11T09:39:05;44.22;;;20.70;;
27857;SDS011;16852;51.446;6.528;2024-01-11T09:41:11;44.22;;;21.00;;
27857;SDS011;16852;51.446;6.528;2024-01-11T09:43:13;44.05;;;21.30;;
27857;SDS011;16852;51.446;6.528;2024-01-11T09:45:14;42.45;;;21.10;;
27857;SDS011;16852;51.446;6.528;2024-01-11T09:47:16;42.55;;;20.67;;
27857;SDS011;16852;51.446;6.528;2024-01-11T09:49:17;46.83;;;22.58;;
27857;SDS011;16852;51.446;6.528;2024-01-11T09:51:21;40.92;;;20.92;;
27857;SDS011;16852;51.446;6.528;2024-01-11T09:53:23;42.22;;;20.77;;
27857;SDS011;16852;51.446;6.528;2024-01-11T09:55:26;42.97;;;21.48;;
27857;SDS011;16852;51.446;6.528;2024-01-11T09:57:31;43.55;;;22.88;;
27857;SDS011;16852;51.446;6.528;2024-01-11T09:59:32;43.97;;;21.70;;
27857;SDS011;16852;51.446;6.528;2024-01-11T10:01:35;45.20;;;21.85;;
27857;SDS011;16852;51.446;6.528;2024-01-11T10:03:36;40.47;;;21.02;;
27857;SDS011;16852;51.446;6.528;2024-01-11T10:05:39;40.42;;;21.33;;
27857;SDS011;16852;51.446;6.528;2024-01-11T10:07:41;39.07;;;20.40;;
27857;SDS011;16852;51.446;6.528;2024-01-11T10:09:42;40.08;;;20.65;;
27857;SDS011;16852;51.446;6.528;2024-01-11T10:11:43;45.97;;;21.73;;
27857;SDS011;16852;51.446;6.528;2024-01-11T10:13:44;48.50;;;22.23;;
27857;SDS011;16852;51.446;6.528;2024-01-11T10:15:46;47.25;;;23.15;;
27857;SDS011;16852;51.446;6.528;2024-01-11T10:17:46;44.05;;;21.60;;
27857;SDS011;16852;51.446;6.528;2024-01-11T10:19:47;45.63;;;23.45;;
27857;SDS011;16852;51.446;6.528;2024-01-11T10:21:48;44.00;;;22.85;;
27857;SDS011;16852;51.446;6.528;2024-01-11T10:23:49;47.83;;;21.50;;
27857;SDS011;16852;51.446;6.528;2024-01-11T10:25:50;40.40;;;21.35;;
27857;SDS011;16852;51.446;6.528;2024-01-11T10:27:51;36.20;;;18.83;;
27857;SDS011;16852;51.446;6.528;2024-01-11T10:29:52;39.65;;;20.40;;
27857;SDS011;16852;51.446;6.528;2024-01-11T10:31:52;42.13;;;21.02;;
27857;SDS011;16852;51.446;6.528;2024-01-11T10:33:53;42.42;;;21.05;;
27857;SDS011;16852;51.446;6.528;2024-01-11T10:35:54;48.42;;;21.02;;
27857;SDS011;16852;51.446;6.528;2024-01-11T10:37:55;44.00;;;20.67;;
27857;SDS011;16852;51.446;6.528;2024-01-11T10:39:58;47.42;;;21.33;;
27857;SDS011;16852;51.446;6.528;2024-01-11T10:42:15;39.92;;;20.70;;
27857;SDS011;16852;51.446;6.528;2024-01-11T10:44:20;42.65;;;21.48;;
27857;SDS011;16852;51.446;6.528;2024-01-11T10:46:22;44.75;;;20.52;;
27857;SDS011;16852;51.446;6.528;2024-01-11T10:48:25;43.65;;;20.60;;
27857;SDS011;16852;51.446;6.528;2024-01-11T10:50:30;41.90;;;19.90;;
27857;SDS011;16852;51.446;6.528;2024-01-11T10:52:36;40.70;;;19.92;;
27857;SDS011;16852;51.446;6.528;2024-01-11T10:54:42;40.28;;;20.00;;
27857;SDS011;16852;51.446;6.528;2024-01-11T10:56:42;46.30;;;22.60;;
27857;SDS011;16852;51.446;6.528;2024-01-11T10:58:44;42.58;;;20.63;;
27857;SDS011;16852;51.446;6.528;2024-01-11T11:00:44;42.72;;;19.92;;
27857;SDS011;16852;51.446;6.528;2024-01-11T11:02:46;41.17;;;18.90;;
27857;SDS011;16852;51.446;6.528;2024-01-11T11:04:47;42.40;;;20.27;;
27857;SDS011;16852;51.446;6.528;2024-01-11T11:06:51;44.90;;;21.17;;
27857;SDS011;16852;51.446;6.528;2024-01-11T11:08:55;40.25;;;19.50;;
27857;SDS011;16852;51.446;6.528;2024-01-11T11:10:57;43.00;;;20.73;;
27857;SDS011;16852;51.446;6.528;2024-01-11T11:13:00;41.20;;;19.15;;
27857;SDS011;16852;51.446;6.528;2024-01-11T11:15:01;45.72;;;19.77;;
27857;SDS011;16852;51.446;6.528;2024-01-11T11:17:02;38.22;;;19.38;;
27857;SDS011;16852;51.446;6.528;2024-01-11T11:19:04;43.17;;;19.02;;
27857;SDS011;16852;51.446;6.528;2024-01-11T11:21:09;41.00;;;19.53;;
27857;SDS011;16852;51.446;6.528;2024-01-11T11:23:11;38.55;;;18.77;;
27857;SDS011;16852;51.446;6.528;2024-01-11T11:25:24;42.78;;;20.52;;
27857;SDS011;16852;51.446;6.528;2024-01-11T11:27:25;40.38;;;18.40;;
27857;SDS011;16852;51.446;6.528;2024-01-11T11:29:26;41.05;;;18.20;;
27857;SDS011;16852;51.446;6.528;2024-01-11T11:31:43;39.20;;;18.92;;
27857;SDS011;16852;51.446;6.528;2024-01-11T11:33:48;35.83;;;18.25;;
27857;SDS011;16852;51.446;6.528;2024-01-11T11:35:54;34.47;;;17.75;;
27857;SDS011;16852;51.446;6.528;2024-01-11T11:37:57;37.50;;;18.67;;
27857;SDS011;16852;51.446;6.528;2024-01-11T11:39:58;36.75;;;18.42;;
27857;SDS011;16852;51.446;6.528;2024-01-11T11:41:59;39.60;;;18.08;;
27857;SDS011;16852;51.446;6.528;2024-01-11T11:44:01;46.13;;;20.25;;
27857;SDS011;16852;51.446;6.528;2024-01-11T11:50:30;41.88;;;19.88;;
27857;SDS011;16852;51.446;6.528;2024-01-11T11:52:34;37.97;;;18.20;;
27857;SDS011;16852;51.446;6.528;2024-01-11T11:54:38;40.97;;;19.23;;
27857;SDS011;16852;51.446;6.528;2024-01-11T11:56:39;41.83;;;19.27;;